sensor_id;sensor_type;location;lat;lon;timestamp;P1;durP1;ratioP1;P2;durP2;ratioP2
37449;SDS011;23309;52.582;13.406;2024-01-06T00:01:49;25.23;;;16.30;;
37449;SDS011;23309;52.582;13.406;2024-01-06T00:04:15;26.73;;;17.10;;
37449;SDS011;23309;52.582;13.406;2024-01-06T00:06:41;27.47;;;17.43;;
37449;SDS011;23309;52.582;13.406;2024-01-06T00:09:06;27.90;;;16.63;;
37449;SDS011;23309;52.582;13.406;2024-01-06T00:11:32;27.60;;;16.67;;
37449;SDS011;23309;52.582;13.406;2024-01-06T00:13:59;26.93;;;17.20;;
37449;SDS011;23309;52.582;13.406;2024-01-06T00:16:24;30.50;;;16.67;;
37449;SDS011;23309;52.582;13.406;2024-01-06T00:18:50;28.93;;;17.53;;
37449;SDS011;23309;52.582;13.406;2024-01-06T00:21:15;25.70;;;17.20;;
37449;SDS011;23309;52.582;13.406;2024-01-06T00:23:41;30.57;;;16.70;;
37449;SDS011;23309;52.582;13.406;2024-01-06T00:26:07;29.80;;;16.97;;
37449;SDS011;23309;52.582;13.406;2024-01-06T00:28:33;28.73;;;17.37;;
37449;SDS011;23309;52.582;13.406;2024-01-06T00:30:59;26.73;;;16.10;;
37449;SDS011;23309;52.582;13.406;2024-01-06T00:33:24;24.73;;;16.10;;
37449;SDS011;23309;52.582;13.406;2024-01-06T00:35:50;30.47;;;17.27;;
37449;SDS011;23309;52.582;13.406;2024-01-06T00:38:15;27.70;;;16.10;;
37449;SDS011;23309;52.582;13.406;2024-01-06T00:40:41;26.80;;;16.30;;
37449;SDS011;23309;52.582;13.406;2024-01-06T00:43:06;26.57;;;16.13;;
37449;SDS011;23309;52.582;13.406;2024-01-06T00:45:32;24.47;;;16.17;;
37449;SDS011;23309;52.582;13.406;2024-01-06T00:47:58;23.57;;;15.70;;
37449;SDS011;23309;52.582;13.406;2024-01-06T00:50:23;29.50;;;16.13;;
37449;SDS011;23309;52.582;13.406;2024-01-06T00:52:49;26.67;;;15.83;;
37449;SDS011;23309;52.582;13.406;2024-01-06T00:55:20;25.47;;;16.60;;
37449;SDS011;23309;52.582;13.406;2024-01-06T00:57:46;25.37;;;15.40;;
37449;SDS011;23309;52.582;13.406;2024-01-06T01:00:12;21.47;;;14.63;;
37449;SDS011;23309;52.582;13.406;2024-01-06T01:02:38;24.10;;;15.37;;
37449;SDS011;23309;52.582;13.406;2024-01-06T01:05:04;26.50;;;15.50;;
37449;SDS011;23309;52.582;13.406;2024-01-06T01:07:29;23.23;;;15.90;;
37449;SDS011;23309;52.582;13.406;2024-01-06T01:09:55;26.03;;;15.77;;
37449;SDS011;23309;52.582;13.406;2024-01-06T01:12:22;30.17;;;16.60;;
37449;SDS011;23309;52.582;13.406;2024-01-06T01:14:48;26.50;;;16.70;;
37449;SDS011;23309;52.582;13.406;2024-01-06T01:17:14;26.20;;;16.23;;
37449;SDS011;23309;52.582;13.406;2024-01-06T01:19:40;24.10;;;15.90;;
37449;SDS011;23309;52.582;13.406;2024-01-06T01:22:05;29.57;;;16.67;;
37449;SDS011;23309;52.582;13.406;2024-01-06T01:24:31;22.50;;;15.17;;
37449;SDS011;23309;52.582;13.406;2024-01-06T01:26:56;25.10;;;16.37;;
37449;SDS011;23309;52.582;13.406;2024-01-06T01:29:22;23.97;;;15.80;;
37449;SDS011;23309;52.582;13.406;2024-01-06T01:31:47;27.07;;;15.47;;
37449;SDS011;23309;52.582;13.406;2024-01-06T01:34:13;24.77;;;16.00;;
37449;SDS011;23309;52.582;13.406;2024-01-06T01:36:38;22.90;;;15.50;;
37449;SDS011;23309;52.582;13.406;2024-01-06T01:39:04;22.60;;;14.53;;
37449;SDS011;23309;52.582;13.406;2024-01-06T01:41:30;23.37;;;15.10;;
37449;SDS011;23309;52.582;13.406;2024-01-06T01:43:55;26.43;;;16.13;;
37449;SDS011;23309;52.582;13.406;2024-01-06T01:46:25;26.07;;;15.63;;
37449;SDS011;23309;52.582;13.406;2024-01-06T01:48:55;27.33;;;16.20;;
37449;SDS011;23309;52.582;13.406;2024-01-06T01:51:22;30.40;;;15.10;;
37449;SDS011;23309;52.582;13.406;2024-01-06T01:53:50;28.27;;;14.27;;
37449;SDS011;23309;52.582;13.406;2024-01-06T01:56:16;25.97;;;15.07;;
37449;SDS011;23309;52.582;13.406;2024-01-06T01:58:42;24.17;;;14.80;;
37449;SDS011;23309;52.582;13.406;2024-01-06T02:01:08;24.93;;;14.33;;
37449;SDS011;23309;52.582;13.406;2024-01-06T02:03:35;25.87;;;16.07;;
37449;SDS011;23309;52.582;13.406;2024-01-06T02:06:01;28.07;;;15.73;;
37449;SDS011;23309;52.582;13.406;2024-01-06T02:08:28;24.30;;;15.27;;
37449;SDS011;23309;52.582;13.406;2024-01-06T02:10:57;29.53;;;16.60;;
37449;SDS011;23309;52.582;13.406;2024-01-06T02:13:23;28.17;;;16.40;;
37449;SDS011;23309;52.582;13.406;2024-01-06T02:15:49;23.93;;;14.73;;
37449;SDS011;23309;52.582;13.406;2024-01-06T02:18:15;27.80;;;15.43;;
37449;SDS011;23309;52.582;13.406;2024-01-06T02:20:42;25.27;;;15.23;;
37449;SDS011;23309;52.582;13.406;2024-01-06T02:23:09;27.40;;;15.70;;
37449;SDS011;23309;52.582;13.406;2024-01-06T02:25:34;24.60;;;16.30;;
37449;SDS011;23309;52.582;13.406;2024-01-06T02:28:00;29.50;;;16.30;;
37449;SDS011;23309;52.582;13.406;2024-01-06T02:30:26;26.00;;;16.43;;
37449;SDS011;23309;52.582;13.406;2024-01-06T02:32:51;27.67;;;15.77;;
37449;SDS011;23309;52.582;13.406;2024-01-06T02:35:18;26.00;;;15.87;;
37449;SDS011;23309;52.582;13.406;2024-01-06T02:37:45;27.63;;;15.27;;
37449;SDS011;23309;52.582;13.406;2024-01-06T02:40:11;25.37;;;16.00;;
37449;SDS011;23309;52.582;13.406;2024-01-06T02:42:37;26.53;;;15.63;;
37449;SDS011;23309;52.582;13.406;2024-01-06T02:45:02;28.10;;;15.57;;
37449;SDS011;23309;52.582;13.406;2024-01-06T02:47:28;25.67;;;15.50;;
37449;SDS011;23309;52.582;13.406;2024-01-06T02:49:54;29.60;;;17.13;;
37449;SDS011;23309;52.582;13.406;2024-01-06T02:52:19;26.70;;;16.57;;
37449;SDS011;23309;52.582;13.406;2024-01-06T02:54:45;25.23;;;16.77;;
37449;SDS011;23309;52.582;13.406;2024-01-06T02:57:10;25.67;;;16.37;;
37449;SDS011;23309;52.582;13.406;2024-01-06T02:59:38;30.27;;;17.10;;
37449;SDS011;23309;52.582;13.406;2024-01-06T03:02:04;25.20;;;15.63;;
37449;SDS011;23309;52.582;13.406;2024-01-06T03:04:29;25.67;;;16.53;;
37449;SDS011;23309;52.582;13.406;2024-01-06T03:06:55;29.77;;;15.57;;
37449;SDS011;23309;52.582;13.406;2024-01-06T03:09:21;31.77;;;16.30;;
37449;SDS011;23309;52.582;13.406;2024-01-06T03:11:47;26.00;;;16.23;;
37449;SDS011;23309;52.582;13.406;2024-01-06T03:14:13;28.77;;;16.87;;
37449;SDS011;23309;52.582;13.406;2024-01-06T03:16:40;28.93;;;16.23;;
37449;SDS011;23309;52.582;13.406;2024-01-06T03:19:05;29.40;;;17.00;;
37449;SDS011;23309;52.582;13.406;2024-01-06T03:21:31;25.80;;;15.00;;
37449;SDS011;23309;52.582;13.406;2024-01-06T03:23:56;28.80;;;16.30;;
37449;SDS011;23309;52.582;13.406;2024-01-06T03:26:22;25.70;;;15.57;;
37449;SDS011;23309;52.582;13.406;2024-01-06T03:28:49;28.07;;;16.20;;
37449;SDS011;23309;52.582;13.406;2024-01-06T03:31:15;29.37;;;16.77;;
37449;SDS011;23309;52.582;13.406;2024-01-06T03:33:41;25.40;;;16.37;;
37449;SDS011;23309;52.582;13.406;2024-01-06T03:36:07;23.47;;;14.57;;
37449;SDS011;23309;52.582;13.406;2024-01-06T03:38:33;26.07;;;16.30;;
37449;SDS011;23309;52.582;13.406;2024-01-06T03:40:59;27.50;;;15.70;;
37449;SDS011;23309;52.582;13.406;2024-01-06T03:43:24;30.40;;;16.07;;
37449;SDS011;23309;52.582;13.406;2024-01-06T03:45:51;27.33;;;16.00;;
37449;SDS011;23309;52.582;13.406;2024-01-06T03:48:17;28.20;;;17.20;;
37449;SDS011;23309;52.582;13.406;2024-01-06T03:50:42;32.33;;;16.60;;
37449;SDS011;23309;52.582;13.406;2024-01-06T03:53:08;26.80;;;16.73;;
37449;SDS011;23309;52.582;13.406;2024-01-06T03:55:33;30.90;;;17.87;;
37449;SDS011;23309;52.582;13.406;2024-01-06T03:57:59;31.40;;;16.97;;
37449;SDS011;23309;52.582;13.406;2024-01-06T04:00:25;29.77;;;15.90;;
37449;SDS011;23309;52.582;13.406;2024-01-06T04:02:51;27.80;;;15.33;;
37449;SDS011;23309;52.582;13.406;2024-01-06T04:05:17;27.40;;;16.77;;
37449;SDS011;23309;52.582;13.406;2024-01-06T04:07:43;26.20;;;16.27;;
37449;SDS011;23309;52.582;13.406;2024-01-06T04:10:09;29.40;;;17.53;;
37449;SDS011;23309;52.582;13.406;2024-01-06T04:12:35;32.03;;;16.87;;
37449;SDS011;23309;52.582;13.406;2024-01-06T04:15:01;25.07;;;15.97;;
37449;SDS011;23309;52.582;13.406;2024-01-06T04:17:28;28.13;;;16.33;;
37449;SDS011;23309;52.582;13.406;2024-01-06T04:19:57;27.20;;;16.07;;
37449;SDS011;23309;52.582;13.406;2024-01-06T04:22:23;23.57;;;15.70;;
37449;SDS011;23309;52.582;13.406;2024-01-06T04:24:49;28.13;;;17.43;;
37449;SDS011;23309;52.582;13.406;2024-01-06T04:27:15;30.83;;;16.60;;
37449;SDS011;23309;52.582;13.406;2024-01-06T04:29:41;30.03;;;16.70;;
37449;SDS011;23309;52.582;13.406;2024-01-06T04:32:06;24.63;;;15.13;;
37449;SDS011;23309;52.582;13.406;2024-01-06T04:34:32;26.90;;;16.13;;
37449;SDS011;23309;52.582;13.406;2024-01-06T04:36:58;27.50;;;16.37;;
37449;SDS011;23309;52.582;13.406;2024-01-06T04:39:23;24.60;;;15.63;;
37449;SDS011;23309;52.582;13.406;2024-01-06T04:41:49;28.47;;;16.60;;
37449;SDS011;23309;52.582;13.406;2024-01-06T04:44:15;28.60;;;16.93;;
37449;SDS011;23309;52.582;13.406;2024-01-06T04:46:40;26.20;;;16.23;;
37449;SDS011;23309;52.582;13.406;2024-01-06T04:49:06;27.77;;;16.90;;
37449;SDS011;23309;52.582;13.406;2024-01-06T04:51:31;26.37;;;17.17;;
37449;SDS011;23309;52.582;13.406;2024-01-06T04:53:57;27.73;;;16.30;;
37449;SDS011;23309;52.582;13.406;2024-01-06T04:56:22;27.73;;;17.00;;
37449;SDS011;23309;52.582;13.406;2024-01-06T04:58:48;32.30;;;18.50;;
37449;SDS011;23309;52.582;13.406;2024-01-06T05:01:13;29.67;;;17.40;;
37449;SDS011;23309;52.582;13.406;2024-01-06T05:03:39;31.53;;;16.60;;
37449;SDS011;23309;52.582;13.406;2024-01-06T05:06:05;31.40;;;17.10;;
37449;SDS011;23309;52.582;13.406;2024-01-06T05:08:30;26.73;;;16.50;;
37449;SDS011;23309;52.582;13.406;2024-01-06T05:10:56;29.90;;;16.33;;
37449;SDS011;23309;52.582;13.406;2024-01-06T05:13:21;31.57;;;16.47;;
37449;SDS011;23309;52.582;13.406;2024-01-06T05:15:47;28.30;;;17.90;;
37449;SDS011;23309;52.582;13.406;2024-01-06T05:18:12;31.10;;;17.23;;
37449;SDS011;23309;52.582;13.406;2024-01-06T05:20:38;27.70;;;16.70;;
37449;SDS011;23309;52.582;13.406;2024-01-06T05:23:05;31.30;;;17.20;;
37449;SDS011;23309;52.582;13.406;2024-01-06T05:25:31;29.07;;;16.60;;
37449;SDS011;23309;52.582;13.406;2024-01-06T05:27:57;28.37;;;17.10;;
37449;SDS011;23309;52.582;13.406;2024-01-06T05:30:22;30.37;;;17.50;;
37449;SDS011;23309;52.582;13.406;2024-01-06T05:32:48;32.87;;;17.23;;
37449;SDS011;23309;52.582;13.406;2024-01-06T05:35:15;31.77;;;17.20;;
37449;SDS011;23309;52.582;13.406;2024-01-06T05:37:41;33.93;;;16.30;;
37449;SDS011;23309;52.582;13.406;2024-01-06T05:40:07;30.43;;;16.37;;
37449;SDS011;23309;52.582;13.406;2024-01-06T05:42:33;32.53;;;17.73;;
37449;SDS011;23309;52.582;13.406;2024-01-06T05:44:58;32.53;;;17.83;;
37449;SDS011;23309;52.582;13.406;2024-01-06T05:47:24;30.27;;;17.67;;
37449;SDS011;23309;52.582;13.406;2024-01-06T05:49:49;31.50;;;18.10;;
37449;SDS011;23309;52.582;13.406;2024-01-06T05:52:15;33.43;;;18.50;;
37449;SDS011;23309;52.582;13.406;2024-01-06T05:54:41;34.60;;;18.23;;
37449;SDS011;23309;52.582;13.406;2024-01-06T05:57:09;30.27;;;17.20;;
37449;SDS011;23309;52.582;13.406;2024-01-06T05:59:35;30.03;;;16.83;;
37449;SDS011;23309;52.582;13.406;2024-01-06T06:02:01;29.13;;;17.23;;
37449;SDS011;23309;52.582;13.406;2024-01-06T06:04:26;28.77;;;16.93;;
37449;SDS011;23309;52.582;13.406;2024-01-06T06:06:52;30.60;;;17.57;;
37449;SDS011;23309;52.582;13.406;2024-01-06T06:09:17;29.10;;;17.20;;
37449;SDS011;23309;52.582;13.406;2024-01-06T06:11:43;32.30;;;16.47;;
37449;SDS011;23309;52.582;13.406;2024-01-06T06:14:09;28.03;;;16.50;;
37449;SDS011;23309;52.582;13.406;2024-01-06T06:16:34;33.17;;;17.00;;
37449;SDS011;23309;52.582;13.406;2024-01-06T06:19:00;32.27;;;16.43;;
37449;SDS011;23309;52.582;13.406;2024-01-06T06:21:25;32.20;;;18.67;;
37449;SDS011;23309;52.582;13.406;2024-01-06T06:23:51;35.83;;;18.70;;
37449;SDS011;23309;52.582;13.406;2024-01-06T06:26:16;34.70;;;17.43;;
37449;SDS011;23309;52.582;13.406;2024-01-06T06:28:42;32.40;;;17.17;;
37449;SDS011;23309;52.582;13.406;2024-01-06T06:31:08;30.90;;;17.90;;
37449;SDS011;23309;52.582;13.406;2024-01-06T06:33:33;32.07;;;17.60;;
37449;SDS011;23309;52.582;13.406;2024-01-06T06:35:59;32.17;;;17.20;;
37449;SDS011;23309;52.582;13.406;2024-01-06T06:38:27;35.30;;;18.00;;
37449;SDS011;23309;52.582;13.406;2024-01-06T06:40:53;31.53;;;17.50;;
37449;SDS011;23309;52.582;13.406;2024-01-06T06:43:18;32.47;;;16.83;;
37449;SDS011;23309;52.582;13.406;2024-01-06T06:45:44;35.37;;;17.77;;
37449;SDS011;23309;52.582;13.406;2024-01-06T06:48:10;32.83;;;17.30;;
37449;SDS011;23309;52.582;13.406;2024-01-06T06:50:35;32.00;;;17.83;;
37449;SDS011;23309;52.582;13.406;2024-01-06T06:53:01;27.50;;;16.17;;
37449;SDS011;23309;52.582;13.406;2024-01-06T06:55:27;30.70;;;16.57;;
37449;SDS011;23309;52.582;13.406;2024-01-06T06:57:53;39.90;;;16.37;;
37449;SDS011;23309;52.582;13.406;2024-01-06T07:00:18;34.37;;;18.13;;
37449;SDS011;23309;52.582;13.406;2024-01-06T07:02:44;31.80;;;16.47;;
37449;SDS011;23309;52.582;13.406;2024-01-06T07:05:10;36.50;;;17.97;;
37449;SDS011;23309;52.582;13.406;2024-01-06T07:07:36;37.50;;;18.20;;
37449;SDS011;23309;52.582;13.406;2024-01-06T07:10:02;34.43;;;18.77;;
37449;SDS011;23309;52.582;13.406;2024-01-06T07:12:30;34.37;;;17.67;;
37449;SDS011;23309;52.582;13.406;2024-01-06T07:14:55;32.47;;;17.20;;
37449;SDS011;23309;52.582;13.406;2024-01-06T07:17:21;29.80;;;16.10;;
37449;SDS011;23309;52.582;13.406;2024-01-06T07:19:47;35.60;;;17.47;;
37449;SDS011;23309;52.582;13.406;2024-01-06T07:22:13;32.20;;;17.43;;
37449;SDS011;23309;52.582;13.406;2024-01-06T07:24:41;30.83;;;16.70;;
37449;SDS011;23309;52.582;13.406;2024-01-06T07:27:07;30.60;;;16.53;;
37449;SDS011;23309;52.582;13.406;2024-01-06T07:29:32;33.97;;;18.20;;
37449;SDS011;23309;52.582;13.406;2024-01-06T07:31:58;33.87;;;17.57;;
37449;SDS011;23309;52.582;13.406;2024-01-06T07:34:23;31.63;;;16.60;;
37449;SDS011;23309;52.582;13.406;2024-01-06T07:36:50;35.23;;;18.03;;
37449;SDS011;23309;52.582;13.406;2024-01-06T07:39:16;35.10;;;18.43;;
37449;SDS011;23309;52.582;13.406;2024-01-06T07:41:41;32.77;;;17.47;;
37449;SDS011;23309;52.582;13.406;2024-01-06T07:44:07;28.63;;;16.70;;
37449;SDS011;23309;52.582;13.406;2024-01-06T07:46:33;28.17;;;17.43;;
37449;SDS011;23309;52.582;13.406;2024-01-06T07:49:00;35.77;;;17.50;;
37449;SDS011;23309;52.582;13.406;2024-01-06T07:51:25;34.17;;;17.70;;
37449;SDS011;23309;52.582;13.406;2024-01-06T07:53:51;33.73;;;17.53;;
37449;SDS011;23309;52.582;13.406;2024-01-06T07:56:16;31.30;;;16.77;;
37449;SDS011;23309;52.582;13.406;2024-01-06T07:58:43;31.37;;;16.87;;
37449;SDS011;23309;52.582;13.406;2024-01-06T08:01:08;34.20;;;17.43;;
37449;SDS011;23309;52.582;13.406;2024-01-06T08:03:34;37.63;;;17.87;;
37449;SDS011;23309;52.582;13.406;2024-01-06T08:05:59;29.17;;;17.37;;
37449;SDS011;23309;52.582;13.406;2024-01-06T08:08:25;34.83;;;18.30;;
37449;SDS011;23309;52.582;13.406;2024-01-06T08:10:51;34.30;;;18.57;;
37449;SDS011;23309;52.582;13.406;2024-01-06T08:13:16;29.40;;;17.17;;
37449;SDS011;23309;52.582;13.406;2024-01-06T08:15:42;30.77;;;16.50;;
37449;SDS011;23309;52.582;13.406;2024-01-06T08:18:08;32.77;;;17.50;;
37449;SDS011;23309;52.582;13.406;2024-01-06T08:20:33;31.83;;;16.50;;
37449;SDS011;23309;52.582;13.406;2024-01-06T08:22:59;29.73;;;16.70;;
37449;SDS011;23309;52.582;13.406;2024-01-06T08:25:25;33.00;;;17.17;;
37449;SDS011;23309;52.582;13.406;2024-01-06T08:27:50;29.87;;;17.23;;
37449;SDS011;23309;52.582;13.406;2024-01-06T08:30:16;32.67;;;18.57;;
37449;SDS011;23309;52.582;13.406;2024-01-06T08:32:41;31.80;;;17.60;;
37449;SDS011;23309;52.582;13.406;2024-01-06T08:35:07;33.67;;;17.10;;
37449;SDS011;23309;52.582;13.406;2024-01-06T08:37:33;37.93;;;18.30;;
37449;SDS011;23309;52.582;13.406;2024-01-06T08:40:01;29.00;;;17.30;;
37449;SDS011;23309;52.582;13.406;2024-01-06T08:42:29;33.90;;;16.97;;
37449;SDS011;23309;52.582;13.406;2024-01-06T08:44:55;32.87;;;18.50;;
37449;SDS011;23309;52.582;13.406;2024-01-06T08:47:20;31.53;;;17.27;;
37449;SDS011;23309;52.582;13.406;2024-01-06T08:49:46;32.50;;;17.10;;
37449;SDS011;23309;52.582;13.406;2024-01-06T08:52:11;29.77;;;17.80;;
37449;SDS011;23309;52.582;13.406;2024-01-06T08:54:37;32.03;;;17.20;;
37449;SDS011;23309;52.582;13.406;2024-01-06T08:57:03;37.80;;;18.10;;
37449;SDS011;23309;52.582;13.406;2024-01-06T08:59:31;33.60;;;17.13;;
37449;SDS011;23309;52.582;13.406;2024-01-06T09:01:57;32.30;;;17.90;;
37449;SDS011;23309;52.582;13.406;2024-01-06T09:04:22;35.33;;;17.83;;
37449;SDS011;23309;52.582;13.406;2024-01-06T09:06:48;32.63;;;18.53;;
37449;SDS011;23309;52.582;13.406;2024-01-06T09:09:15;35.63;;;17.50;;
37449;SDS011;23309;52.582;13.406;2024-01-06T09:11:41;33.87;;;18.60;;
37449;SDS011;23309;52.582;13.406;2024-01-06T09:14:09;31.30;;;18.27;;
37449;SDS011;23309;52.582;13.406;2024-01-06T09:16:40;38.00;;;18.20;;
37449;SDS011;23309;52.582;13.406;2024-01-06T09:19:05;32.43;;;17.90;;
37449;SDS011;23309;52.582;13.406;2024-01-06T09:21:31;30.10;;;17.17;;
37449;SDS011;23309;52.582;13.406;2024-01-06T09:23:56;32.73;;;17.50;;
37449;SDS011;23309;52.582;13.406;2024-01-06T09:26:22;29.90;;;18.20;;
37449;SDS011;23309;52.582;13.406;2024-01-06T09:28:47;32.60;;;17.47;;
37449;SDS011;23309;52.582;13.406;2024-01-06T09:31:13;29.83;;;17.87;;
37449;SDS011;23309;52.582;13.406;2024-01-06T09:33:39;29.70;;;17.00;;
37449;SDS011;23309;52.582;13.406;2024-01-06T09:36:04;34.33;;;17.30;;
37449;SDS011;23309;52.582;13.406;2024-01-06T09:38:30;33.03;;;16.50;;
37449;SDS011;23309;52.582;13.406;2024-01-06T09:40:56;31.30;;;17.67;;
37449;SDS011;23309;52.582;13.406;2024-01-06T09:43:23;30.73;;;17.70;;
37449;SDS011;23309;52.582;13.406;2024-01-06T09:45:52;32.20;;;18.20;;
37449;SDS011;23309;52.582;13.406;2024-01-06T09:48:22;27.57;;;17.60;;
37449;SDS011;23309;52.582;13.406;2024-01-06T09:50:54;29.70;;;17.20;;
37449;SDS011;23309;52.582;13.406;2024-01-06T09:53:21;31.30;;;16.73;;
37449;SDS011;23309;52.582;13.406;2024-01-06T09:55:48;28.83;;;16.37;;
37449;SDS011;23309;52.582;13.406;2024-01-06T09:58:17;25.20;;;16.03;;
37449;SDS011;23309;52.582;13.406;2024-01-06T10:00:42;34.80;;;17.33;;
37449;SDS011;23309;52.582;13.406;2024-01-06T10:03:08;25.53;;;15.93;;
37449;SDS011;23309;52.582;13.406;2024-01-06T10:05:34;33.10;;;17.27;;
37449;SDS011;23309;52.582;13.406;2024-01-06T10:08:01;23.77;;;15.50;;
37449;SDS011;23309;52.582;13.406;2024-01-06T10:10:29;24.83;;;14.87;;
37449;SDS011;23309;52.582;13.406;2024-01-06T10:12:54;24.30;;;15.17;;
37449;SDS011;23309;52.582;13.406;2024-01-06T10:15:20;26.50;;;15.70;;
37449;SDS011;23309;52.582;13.406;2024-01-06T10:17:46;23.10;;;15.20;;
37449;SDS011;23309;52.582;13.406;2024-01-06T10:20:12;28.13;;;16.50;;
37449;SDS011;23309;52.582;13.406;2024-01-06T10:22:40;26.60;;;16.23;;
37449;SDS011;23309;52.582;13.406;2024-01-06T10:25:07;29.42;;;15.25;;
37449;SDS011;23309;52.582;13.406;2024-01-06T10:27:37;28.40;;;16.20;;
37449;SDS011;23309;52.582;13.406;2024-01-06T10:30:04;28.60;;;16.07;;
37449;SDS011;23309;52.582;13.406;2024-01-06T10:32:34;29.07;;;17.20;;
37449;SDS011;23309;52.582;13.406;2024-01-06T10:35:01;26.03;;;15.90;;
37449;SDS011;23309;52.582;13.406;2024-01-06T10:37:28;29.43;;;16.40;;
37449;SDS011;23309;52.582;13.406;2024-01-06T10:40:13;25.27;;;16.53;;
37449;SDS011;23309;52.582;13.406;2024-01-06T10:42:43;28.13;;;17.07;;
37449;SDS011;23309;52.582;13.406;2024-01-06T10:45:10;30.23;;;15.50;;
37449;SDS011;23309;52.582;13.406;2024-01-06T10:47:37;27.00;;;15.40;;
37449;SDS011;23309;52.582;13.406;2024-01-06T10:50:03;30.43;;;16.80;;
37449;SDS011;23309;52.582;13.406;2024-01-06T10:52:30;30.40;;;15.70;;
37449;SDS011;23309;52.582;13.406;2024-01-06T10:54:56;25.80;;;15.87;;
37449;SDS011;23309;52.582;13.406;2024-01-06T10:57:22;30.53;;;15.70;;
37449;SDS011;23309;52.582;13.406;2024-01-06T10:59:49;27.47;;;15.73;;
37449;SDS011;23309;52.582;13.406;2024-01-06T11:02:16;24.97;;;15.70;;
37449;SDS011;23309;52.582;13.406;2024-01-06T11:04:42;26.57;;;15.20;;
37449;SDS011;23309;52.582;13.406;2024-01-06T11:07:13;23.30;;;14.63;;
37449;SDS011;23309;52.582;13.406;2024-01-06T11:09:41;23.83;;;15.30;;
37449;SDS011;23309;52.582;13.406;2024-01-06T11:12:12;27.50;;;14.73;;
37449;SDS011;23309;52.582;13.406;2024-01-06T11:14:38;24.20;;;15.80;;
37449;SDS011;23309;52.582;13.406;2024-01-06T11:17:04;25.80;;;15.80;;
37449;SDS011;23309;52.582;13.406;2024-01-06T11:24:54;23.27;;;15.47;;
37449;SDS011;23309;52.582;13.406;2024-01-06T11:27:24;26.70;;;16.13;;
37449;SDS011;23309;52.582;13.406;2024-01-06T11:29:54;23.07;;;14.43;;
37449;SDS011;23309;52.582;13.406;2024-01-06T11:32:24;25.13;;;15.00;;
37449;SDS011;23309;52.582;13.406;2024-01-06T11:34:52;25.73;;;14.63;;
37449;SDS011;23309;52.582;13.406;2024-01-06T11:37:23;26.43;;;16.13;;
37449;SDS011;23309;52.582;13.406;2024-01-06T11:40:02;25.50;;;14.70;;
37449;SDS011;23309;52.582;13.406;2024-01-06T11:42:32;21.80;;;14.40;;
37449;SDS011;23309;52.582;13.406;2024-01-06T11:45:02;24.83;;;15.60;;
37449;SDS011;23309;52.582;13.406;2024-01-06T11:47:31;24.92;;;14.00;;
37449;SDS011;23309;52.582;13.406;2024-01-06T11:49:57;23.90;;;14.53;;
37449;SDS011;23309;52.582;13.406;2024-01-06T11:52:24;24.80;;;14.47;;
37449;SDS011;23309;52.582;13.406;2024-01-06T11:54:50;23.53;;;14.53;;
37449;SDS011;23309;52.582;13.406;2024-01-06T11:57:18;27.27;;;15.60;;
37449;SDS011;23309;52.582;13.406;2024-01-06T11:59:43;22.60;;;14.70;;
37449;SDS011;23309;52.582;13.406;2024-01-06T12:02:12;22.93;;;14.70;;
37449;SDS011;23309;52.582;13.406;2024-01-06T12:04:38;22.70;;;15.20;;
37449;SDS011;23309;52.582;13.406;2024-01-06T12:07:09;23.30;;;15.50;;
37449;SDS011;23309;52.582;13.406;2024-01-06T12:09:40;22.73;;;13.50;;
37449;SDS011;23309;52.582;13.406;2024-01-06T12:12:06;26.33;;;14.60;;
37449;SDS011;23309;52.582;13.406;2024-01-06T12:14:32;27.20;;;14.47;;
37449;SDS011;23309;52.582;13.406;2024-01-06T12:17:00;22.97;;;14.53;;
37449;SDS011;23309;52.582;13.406;2024-01-06T12:19:31;26.87;;;14.93;;
37449;SDS011;23309;52.582;13.406;2024-01-06T12:21:57;23.10;;;14.40;;
37449;SDS011;23309;52.582;13.406;2024-01-06T12:24:23;20.20;;;13.27;;
37449;SDS011;23309;52.582;13.406;2024-01-06T12:26:49;21.73;;;13.40;;
37449;SDS011;23309;52.582;13.406;2024-01-06T12:29:16;26.17;;;15.10;;
37449;SDS011;23309;52.582;13.406;2024-01-06T12:31:42;21.70;;;14.20;;
37449;SDS011;23309;52.582;13.406;2024-01-06T12:34:11;22.00;;;13.47;;
37449;SDS011;23309;52.582;13.406;2024-01-06T12:36:37;21.37;;;14.67;;
37449;SDS011;23309;52.582;13.406;2024-01-06T12:39:04;22.60;;;13.80;;
37449;SDS011;23309;52.582;13.406;2024-01-06T12:41:30;22.73;;;14.70;;
37449;SDS011;23309;52.582;13.406;2024-01-06T12:43:58;25.73;;;14.43;;
37449;SDS011;23309;52.582;13.406;2024-01-06T12:46:25;25.73;;;15.97;;
37449;SDS011;23309;52.582;13.406;2024-01-06T12:48:51;25.17;;;14.30;;
37449;SDS011;23309;52.582;13.406;2024-01-06T12:51:16;23.90;;;13.90;;
37449;SDS011;23309;52.582;13.406;2024-01-06T12:53:42;23.90;;;14.37;;
37449;SDS011;23309;52.582;13.406;2024-01-06T12:56:07;23.00;;;14.60;;
37449;SDS011;23309;52.582;13.406;2024-01-06T12:58:33;22.57;;;13.93;;
37449;SDS011;23309;52.582;13.406;2024-01-06T13:00:59;22.93;;;12.03;;
37449;SDS011;23309;52.582;13.406;2024-01-06T13:03:25;21.00;;;13.00;;
37449;SDS011;23309;52.582;13.406;2024-01-06T13:05:50;20.00;;;12.60;;
37449;SDS011;23309;52.582;13.406;2024-01-06T13:08:16;20.77;;;12.17;;
37449;SDS011;23309;52.582;13.406;2024-01-06T13:10:42;20.40;;;12.70;;
37449;SDS011;23309;52.582;13.406;2024-01-06T13:13:08;22.70;;;12.40;;
37449;SDS011;23309;52.582;13.406;2024-01-06T13:15:34;21.30;;;14.30;;
37449;SDS011;23309;52.582;13.406;2024-01-06T13:17:59;22.53;;;12.73;;
37449;SDS011;23309;52.582;13.406;2024-01-06T13:20:25;27.17;;;13.73;;
37449;SDS011;23309;52.582;13.406;2024-01-06T13:22:50;23.03;;;13.70;;
37449;SDS011;23309;52.582;13.406;2024-01-06T13:25:16;23.93;;;13.60;;
37449;SDS011;23309;52.582;13.406;2024-01-06T13:27:42;23.53;;;13.80;;
37449;SDS011;23309;52.582;13.406;2024-01-06T13:30:08;21.37;;;12.63;;
37449;SDS011;23309;52.582;13.406;2024-01-06T13:32:35;20.23;;;12.80;;
37449;SDS011;23309;52.582;13.406;2024-01-06T13:35:01;18.40;;;12.10;;
37449;SDS011;23309;52.582;13.406;2024-01-06T13:37:29;21.87;;;12.90;;
37449;SDS011;23309;52.582;13.406;2024-01-06T13:39:56;20.77;;;12.40;;
37449;SDS011;23309;52.582;13.406;2024-01-06T13:42:22;22.53;;;13.87;;
37449;SDS011;23309;52.582;13.406;2024-01-06T13:44:47;19.20;;;12.40;;
37449;SDS011;23309;52.582;13.406;2024-01-06T13:47:13;18.00;;;11.93;;
37449;SDS011;23309;52.582;13.406;2024-01-06T13:49:39;20.70;;;11.97;;
37449;SDS011;23309;52.582;13.406;2024-01-06T13:52:05;19.17;;;11.90;;
37449;SDS011;23309;52.582;13.406;2024-01-06T13:54:34;17.97;;;11.87;;
37449;SDS011;23309;52.582;13.406;2024-01-06T13:57:00;18.83;;;12.00;;
37449;SDS011;23309;52.582;13.406;2024-01-06T13:59:26;18.20;;;11.00;;
37449;SDS011;23309;52.582;13.406;2024-01-06T14:01:52;18.60;;;11.77;;
37449;SDS011;23309;52.582;13.406;2024-01-06T14:04:18;14.40;;;10.27;;
37449;SDS011;23309;52.582;13.406;2024-01-06T14:06:44;18.87;;;10.90;;
37449;SDS011;23309;52.582;13.406;2024-01-06T14:09:09;18.77;;;11.83;;